sensor_id;sensor_type;location;lat;lon;timestamp;pressure;altitude;pressure_sealevel;temperature;humidity
71774;BME280;59607;52.130;5.430;2023-04-10T00:01:34;102220.84;;;8.95;75.87
71774;BME280;59607;52.130;5.430;2023-04-10T00:04:11;102211.09;;;8.97;75.57
71774;BME280;59607;52.130;5.430;2023-04-10T00:06:54;102206.69;;;8.97;75.48
71774;BME280;59607;52.130;5.430;2023-04-10T00:09:20;102205.03;;;8.96;75.33
71774;BME280;59607;52.130;5.430;2023-04-10T00:11:54;102189.44;;;8.95;75.37
71774;BME280;59607;52.130;5.430;2023-04-10T00:14:21;102192.06;;;8.95;75.65
71774;BME280;59607;52.130;5.430;2023-04-10T00:16:57;102194.66;;;8.95;74.90
71774;BME280;59607;52.130;5.430;2023-04-10T00:19:23;102186.34;;;8.89;75.26
71774;BME280;59607;52.130;5.430;2023-04-10T00:21:56;102187.19;;;8.90;75.23
71774;BME280;59607;52.130;5.430;2023-04-10T00:24:25;102179.09;;;8.93;75.43
71774;BME280;59607;52.130;5.430;2023-04-10T00:26:51;102173.13;;;8.91;75.59
71774;BME280;59607;52.130;5.430;2023-04-10T00:29:25;102175.88;;;8.89;75.55
71774;BME280;59607;52.130;5.430;2023-04-10T00:31:52;102166.38;;;8.88;75.46
71774;BME280;59607;52.130;5.430;2023-04-10T00:34:22;102166.47;;;8.87;75.34
71774;BME280;59607;52.130;5.430;2023-04-10T00:36:59;102162.06;;;8.87;75.27
71774;BME280;59607;52.130;5.430;2023-04-10T00:39:33;102153.53;;;8.85;75.40
71774;BME280;59607;52.130;5.430;2023-04-10T00:42:00;102150.91;;;8.85;75.65
71774;BME280;59607;52.130;5.430;2023-04-10T00:44:32;102150.91;;;8.85;75.55
71774;BME280;59607;52.130;5.430;2023-04-10T00:47:03;102143.19;;;8.84;75.83
71774;BME280;59607;52.130;5.430;2023-04-10T00:49:35;102142.56;;;8.80;75.82
71774;BME280;59607;52.130;5.430;2023-04-10T00:52:02;102141.97;;;8.76;76.14
71774;BME280;59607;52.130;5.430;2023-04-10T00:54:30;102141.84;;;8.78;76.91
71774;BME280;59607;52.130;5.430;2023-04-10T00:57:00;102142.31;;;8.72;77.52
71774;BME280;59607;52.130;5.430;2023-04-10T00:59:26;102134.84;;;8.67;77.96
71774;BME280;59607;52.130;5.430;2023-04-10T01:02:02;102139.47;;;8.63;78.76
71774;BME280;59607;52.130;5.430;2023-04-10T01:04:30;102128.41;;;8.60;78.72
71774;BME280;59607;52.130;5.430;2023-04-10T01:07:25;102128.41;;;8.60;79.17
71774;BME280;59607;52.130;5.430;2023-04-10T01:10:13;102136.34;;;8.58;79.14
71774;BME280;59607;52.130;5.430;2023-04-10T01:13:11;102133.50;;;8.61;78.96
71774;BME280;59607;52.130;5.430;2023-04-10T01:16:15;102127.69;;;8.58;79.20
71774;BME280;59607;52.130;5.430;2023-04-10T01:18:49;102122.47;;;8.58;79.76
71774;BME280;59607;52.130;5.430;2023-04-10T01:21:35;102120.09;;;8.55;79.92
71774;BME280;59607;52.130;5.430;2023-04-10T01:24:27;102111.38;;;8.54;79.93
71774;BME280;59607;52.130;5.430;2023-04-10T01:30:05;102108.56;;;8.57;80.61
71774;BME280;59607;52.130;5.430;2023-04-10T01:32:53;102101.03;;;8.52;80.89
71774;BME280;59607;52.130;5.430;2023-04-10T01:35:25;102102.59;;;8.55;80.41
71774;BME280;59607;52.130;5.430;2023-04-10T01:38:05;102099.25;;;8.53;80.85
71774;BME280;59607;52.130;5.430;2023-04-10T01:40:37;102106.06;;;8.56;80.51
71774;BME280;59607;52.130;5.430;2023-04-10T01:43:09;102103.44;;;8.56;80.45
71774;BME280;59607;52.130;5.430;2023-04-10T01:45:37;102098.28;;;8.54;80.98
71774;BME280;59607;52.130;5.430;2023-04-10T01:48:10;102091.09;;;8.58;80.56
71774;BME280;59607;52.130;5.430;2023-04-10T01:50:37;102091.22;;;8.56;80.66
71774;BME280;59607;52.130;5.430;2023-04-10T01:53:12;102093.69;;;8.58;79.97
71774;BME280;59607;52.130;5.430;2023-04-10T01:55:40;102087.38;;;8.60;80.32
71774;BME280;59607;52.130;5.430;2023-04-10T01:58:10;102084.91;;;8.59;80.91
71774;BME280;59607;52.130;5.430;2023-04-10T02:00:44;102087.75;;;8.56;81.28
71774;BME280;59607;52.130;5.430;2023-04-10T02:03:13;102085.84;;;8.58;80.85
71774;BME280;59607;52.130;5.430;2023-04-10T02:06:00;102083.81;;;8.61;80.37
71774;BME280;59607;52.130;5.430;2023-04-10T02:08:47;102078.59;;;8.61;80.01
71774;BME280;59607;52.130;5.430;2023-04-10T02:11:34;102076.56;;;8.65;79.64
71774;BME280;59607;52.130;5.430;2023-04-10T02:14:07;102076.44;;;8.67;80.41
71774;BME280;59607;52.130;5.430;2023-04-10T02:16:37;102068.13;;;8.61;80.46
71774;BME280;59607;52.130;5.430;2023-04-10T02:19:07;102072.53;;;8.61;81.07
71774;BME280;59607;52.130;5.430;2023-04-10T02:21:35;102073.22;;;8.63;80.59
71774;BME280;59607;52.130;5.430;2023-04-10T02:24:13;102076.81;;;8.62;80.64
71774;BME280;59607;52.130;5.430;2023-04-10T02:26:52;102073.22;;;8.63;80.64
71774;BME280;59607;52.130;5.430;2023-04-10T02:29:19;102066.47;;;8.60;81.02
71774;BME280;59607;52.130;5.430;2023-04-10T02:31:48;102060.41;;;8.60;80.99
71774;BME280;59607;52.130;5.430;2023-04-10T02:34:15;102063.25;;;8.57;81.04
71774;BME280;59607;52.130;5.430;2023-04-10T02:36:41;102068.47;;;8.57;81.15
71774;BME280;59607;52.130;5.430;2023-04-10T02:39:08;102063.47;;;8.54;81.49
71774;BME280;59607;52.130;5.430;2023-04-10T02:41:49;102077.50;;;8.52;81.70
71774;BME280;59607;52.130;5.430;2023-04-10T02:44:15;102072.38;;;8.51;82.01
71774;BME280;59607;52.130;5.430;2023-04-10T02:46:42;102067.03;;;8.52;81.88
71774;BME280;59607;52.130;5.430;2023-04-10T02:49:08;102061.59;;;8.56;81.09
71774;BME280;59607;52.130;5.430;2023-04-10T02:51:37;102060.03;;;8.53;81.52
71774;BME280;59607;52.130;5.430;2023-04-10T02:54:07;102060.16;;;8.51;81.60
71774;BME280;59607;52.130;5.430;2023-04-10T02:56:33;102064.66;;;8.49;81.57
71774;BME280;59607;52.130;5.430;2023-04-10T02:59:03;102066.56;;;8.47;81.80
71774;BME280;59607;52.130;5.430;2023-04-10T03:01:33;102071.06;;;8.45;81.76
71774;BME280;59607;52.130;5.430;2023-04-10T03:04:03;102073.56;;;8.47;81.58
71774;BME280;59607;52.130;5.430;2023-04-10T03:06:35;102070.94;;;8.47;81.24
71774;BME280;59607;52.130;5.430;2023-04-10T03:09:01;102083.19;;;8.46;81.57
71774;BME280;59607;52.130;5.430;2023-04-10T03:11:31;102077.72;;;8.49;81.44
71774;BME280;59607;52.130;5.430;2023-04-10T03:14:00;102074.28;;;8.49;81.10
71774;BME280;59607;52.130;5.430;2023-04-10T03:16:27;102065.13;;;8.43;82.26
71774;BME280;59607;52.130;5.430;2023-04-10T03:18:58;102071.41;;;8.40;81.81
71774;BME280;59607;52.130;5.430;2023-04-10T03:21:28;102075.84;;;8.40;82.37
71774;BME280;59607;52.130;5.430;2023-04-10T03:23:55;102070.00;;;8.36;82.41
71774;BME280;59607;52.130;5.430;2023-04-10T03:26:45;102063.94;;;8.36;82.59
71774;BME280;59607;52.130;5.430;2023-04-10T03:29:12;102070.84;;;8.37;82.16
71774;BME280;59607;52.130;5.430;2023-04-10T03:31:44;102057.84;;;8.35;82.19
71774;BME280;59607;52.130;5.430;2023-04-10T03:34:13;102069.63;;;8.30;82.51
71774;BME280;59607;52.130;5.430;2023-04-10T03:36:39;102060.25;;;8.27;82.37
71774;BME280;59607;52.130;5.430;2023-04-10T03:39:21;102064.75;;;8.25;83.20
71774;BME280;59607;52.130;5.430;2023-04-10T03:41:55;102058.00;;;8.22;83.43
71774;BME280;59607;52.130;5.430;2023-04-10T03:44:21;102052.84;;;8.21;83.14
71774;BME280;59607;52.130;5.430;2023-04-10T03:46:53;102056.06;;;8.24;82.75
71774;BME280;59607;52.130;5.430;2023-04-10T03:49:26;102048.13;;;8.26;82.64
71774;BME280;59607;52.130;5.430;2023-04-10T03:52:10;102053.56;;;8.23;83.00
71774;BME280;59607;52.130;5.430;2023-04-10T03:54:41;102048.34;;;8.23;82.89
71774;BME280;59607;52.130;5.430;2023-04-10T03:57:08;102049.31;;;8.22;82.99
71774;BME280;59607;52.130;5.430;2023-04-10T03:59:37;102043.97;;;8.23;82.87
71774;BME280;59607;52.130;5.430;2023-04-10T04:02:07;102041.22;;;8.25;82.37
71774;BME280;59607;52.130;5.430;2023-04-10T04:04:33;102036.25;;;8.22;82.86
71774;BME280;59607;52.130;5.430;2023-04-10T04:07:11;102030.06;;;8.23;82.33
71774;BME280;59607;52.130;5.430;2023-04-10T04:09:39;102023.06;;;8.23;81.78
71774;BME280;59607;52.130;5.430;2023-04-10T04:12:11;102029.13;;;8.24;81.80
71774;BME280;59607;52.130;5.430;2023-04-10T04:14:37;102022.22;;;8.23;81.66
71774;BME280;59607;52.130;5.430;2023-04-10T04:17:07;102016.88;;;8.24;80.70
71774;BME280;59607;52.130;5.430;2023-04-10T04:19:36;102016.06;;;8.24;80.89
71774;BME280;59607;52.130;5.430;2023-04-10T04:22:03;102018.66;;;8.24;80.62
71774;BME280;59607;52.130;5.430;2023-04-10T04:24:32;102013.44;;;8.24;80.88
71774;BME280;59607;52.130;5.430;2023-04-10T04:27:01;102018.78;;;8.22;81.05
71774;BME280;59607;52.130;5.430;2023-04-10T04:29:29;102021.59;;;8.19;81.86
71774;BME280;59607;52.130;5.430;2023-04-10T04:31:58;102024.22;;;8.19;81.77
71774;BME280;59607;52.130;5.430;2023-04-10T04:34:24;102026.03;;;8.19;82.00
71774;BME280;59607;52.130;5.430;2023-04-10T04:36:50;102023.53;;;8.17;81.56
71774;BME280;59607;52.130;5.430;2023-04-10T04:39:17;102015.81;;;8.15;81.63
71774;BME280;59607;52.130;5.430;2023-04-10T04:41:43;102012.34;;;8.15;81.83
71774;BME280;59607;52.130;5.430;2023-04-10T04:44:10;102011.50;;;8.14;81.89
71774;BME280;59607;52.130;5.430;2023-04-10T04:46:36;102009.75;;;8.15;81.38
71774;BME280;59607;52.130;5.430;2023-04-10T04:49:03;101999.53;;;8.12;81.60
71774;BME280;59607;52.130;5.430;2023-04-10T04:51:29;102003.91;;;8.11;81.84
71774;BME280;59607;52.130;5.430;2023-04-10T04:53:56;102009.13;;;8.11;81.33
71774;BME280;59607;52.130;5.430;2023-04-10T04:56:22;102007.34;;;8.12;81.48
71774;BME280;59607;52.130;5.430;2023-04-10T04:58:48;102010.22;;;8.09;81.59
71774;BME280;59607;52.130;5.430;2023-04-10T05:01:21;102011.06;;;8.09;81.44
71774;BME280;59607;52.130;5.430;2023-04-10T05:03:47;102009.38;;;8.08;81.00
71774;BME280;59607;52.130;5.430;2023-04-10T05:06:17;102015.44;;;8.09;81.48
71774;BME280;59607;52.130;5.430;2023-04-10T05:08:44;102011.16;;;8.08;81.62
71774;BME280;59607;52.130;5.430;2023-04-10T05:11:10;102006.75;;;8.08;80.96
71774;BME280;59607;52.130;5.430;2023-04-10T05:13:40;101993.69;;;8.08;81.59
71774;BME280;59607;52.130;5.430;2023-04-10T05:16:08;101992.63;;;8.11;81.60
71774;BME280;59607;52.130;5.430;2023-04-10T05:18:34;101994.19;;;8.13;81.03
71774;BME280;59607;52.130;5.430;2023-04-10T05:21:01;101990.25;;;8.19;80.57
71774;BME280;59607;52.130;5.430;2023-04-10T05:23:33;101985.88;;;8.31;79.99
71774;BME280;59607;52.130;5.430;2023-04-10T05:25:59;101996.81;;;8.71;78.88
71774;BME280;59607;52.130;5.430;2023-04-10T05:28:30;101993.75;;;9.10;76.29
71774;BME280;59607;52.130;5.430;2023-04-10T05:30:56;101994.34;;;9.02;75.94
71774;BME280;59607;52.130;5.430;2023-04-10T05:33:23;101994.03;;;8.95;75.98
71774;BME280;59607;52.130;5.430;2023-04-10T05:35:51;101986.63;;;8.89;76.06
71774;BME280;59607;52.130;5.430;2023-04-10T05:38:21;101984.41;;;8.84;75.92
71774;BME280;59607;52.130;5.430;2023-04-10T05:40:47;101984.41;;;8.84;76.28
71774;BME280;59607;52.130;5.430;2023-04-10T05:43:14;101982.50;;;8.86;76.05
71774;BME280;59607;52.130;5.430;2023-04-10T05:45:47;101986.28;;;8.94;76.05
71774;BME280;59607;52.130;5.430;2023-04-10T05:48:13;101989.31;;;9.10;76.64
71774;BME280;59607;52.130;5.430;2023-04-10T05:50:49;101977.28;;;9.19;75.63
71774;BME280;59607;52.130;5.430;2023-04-10T05:53:20;101979.84;;;9.31;74.63
71774;BME280;59607;52.130;5.430;2023-04-10T05:55:52;101981.59;;;9.42;73.22
71774;BME280;59607;52.130;5.430;2023-04-10T05:58:21;101982.72;;;9.49;73.14
71774;BME280;59607;52.130;5.430;2023-04-10T06:00:56;101980.75;;;9.62;72.65
71774;BME280;59607;52.130;5.430;2023-04-10T06:03:23;101982.34;;;9.75;74.38
71774;BME280;59607;52.130;5.430;2023-04-10T06:05:56;101972.19;;;9.82;72.66
71774;BME280;59607;52.130;5.430;2023-04-10T06:08:23;101969.31;;;9.85;72.52
71774;BME280;59607;52.130;5.430;2023-04-10T06:10:50;101972.56;;;9.77;71.80
71774;BME280;59607;52.130;5.430;2023-04-10T06:13:24;101967.16;;;9.69;72.03
71774;BME280;59607;52.130;5.430;2023-04-10T06:15:55;101966.56;;;9.65;72.21
71774;BME280;59607;52.130;5.430;2023-04-10T06:18:24;101960.66;;;9.63;72.80
71774;BME280;59607;52.130;5.430;2023-04-10T06:20:50;101963.94;;;9.65;72.46
71774;BME280;59607;52.130;5.430;2023-04-10T06:23:17;101965.75;;;9.65;71.95
71774;BME280;59607;52.130;5.430;2023-04-10T06:25:49;101943.69;;;9.67;72.14
71774;BME280;59607;52.130;5.430;2023-04-10T06:28:15;101948.81;;;9.69;72.10
71774;BME280;59607;52.130;5.430;2023-04-10T06:30:51;101941.25;;;9.75;72.06
71774;BME280;59607;52.130;5.430;2023-04-10T06:33:18;101932.06;;;9.81;71.58
71774;BME280;59607;52.130;5.430;2023-04-10T06:35:47;101931.16;;;9.92;71.38
71774;BME280;59607;52.130;5.430;2023-04-10T06:38:20;101926.22;;;9.99;71.33
71774;BME280;59607;52.130;5.430;2023-04-10T06:40:47;101923.88;;;10.06;70.72
71774;BME280;59607;52.130;5.430;2023-04-10T06:43:38;101924.75;;;10.16;70.83
71774;BME280;59607;52.130;5.430;2023-04-10T06:46:05;101916.34;;;10.22;70.06
71774;BME280;59607;52.130;5.430;2023-04-10T06:48:37;101907.94;;;10.29;69.65
71774;BME280;59607;52.130;5.430;2023-04-10T06:51:06;101908.09;;;10.37;69.34
71774;BME280;59607;52.130;5.430;2023-04-10T06:53:35;101904.00;;;10.44;69.19
71774;BME280;59607;52.130;5.430;2023-04-10T06:56:07;101902.66;;;10.50;69.36
71774;BME280;59607;52.130;5.430;2023-04-10T06:58:35;101899.75;;;10.53;69.21
71774;BME280;59607;52.130;5.430;2023-04-10T07:01:10;101889.13;;;10.65;68.97
71774;BME280;59607;52.130;5.430;2023-04-10T07:03:40;101885.81;;;10.72;68.09
71774;BME280;59607;52.130;5.430;2023-04-10T07:06:06;101879.47;;;10.75;67.96
71774;BME280;59607;52.130;5.430;2023-04-10T07:08:40;101881.13;;;10.86;67.72
71774;BME280;59607;52.130;5.430;2023-04-10T07:11:23;101875.88;;;10.96;67.68
71774;BME280;59607;52.130;5.430;2023-04-10T07:13:55;101858.72;;;11.02;66.92
71774;BME280;59607;52.130;5.430;2023-04-10T07:16:23;101856.22;;;11.20;66.54
71774;BME280;59607;52.130;5.430;2023-04-10T07:18:58;101849.31;;;11.29;66.10
71774;BME280;59607;52.130;5.430;2023-04-10T07:21:24;101852.00;;;11.37;64.75
71774;BME280;59607;52.130;5.430;2023-04-10T07:23:53;101845.78;;;11.48;63.54
71774;BME280;59607;52.130;5.430;2023-04-10T07:26:24;101843.63;;;11.62;62.81
71774;BME280;59607;52.130;5.430;2023-04-10T07:28:54;101838.25;;;11.63;62.68
71774;BME280;59607;52.130;5.430;2023-04-10T07:31:37;101826.44;;;11.77;62.40
71774;BME280;59607;52.130;5.430;2023-04-10T07:34:10;101822.94;;;11.87;61.77
71774;BME280;59607;52.130;5.430;2023-04-10T07:36:37;101831.66;;;11.87;61.56
71774;BME280;59607;52.130;5.430;2023-04-10T07:39:05;101823.69;;;11.97;60.81
71774;BME280;59607;52.130;5.430;2023-04-10T07:41:31;101823.25;;;12.02;61.08
71774;BME280;59607;52.130;5.430;2023-04-10T07:43:58;101823.69;;;12.25;60.33
71774;BME280;59607;52.130;5.430;2023-04-10T07:46:27;101820.59;;;12.30;60.33
71774;BME280;59607;52.130;5.430;2023-04-10T07:48:56;101813.00;;;12.45;60.25
71774;BME280;59607;52.130;5.430;2023-04-10T07:51:22;101819.47;;;12.69;59.54
71774;BME280;59607;52.130;5.430;2023-04-10T07:53:52;101810.75;;;12.95;59.20
71774;BME280;59607;52.130;5.430;2023-04-10T07:56:21;101806.94;;;13.16;58.03
71774;BME280;59607;52.130;5.430;2023-04-10T07:58:50;101798.22;;;13.15;57.68
71774;BME280;59607;52.130;5.430;2023-04-10T08:01:17;101796.66;;;13.31;58.29
71774;BME280;59607;52.130;5.430;2023-04-10T08:03:44;101789.91;;;13.37;57.62
71774;BME280;59607;52.130;5.430;2023-04-10T08:06:12;101790.19;;;13.25;57.54
71774;BME280;59607;52.130;5.430;2023-04-10T08:08:41;101787.97;;;13.12;57.76
71774;BME280;59607;52.130;5.430;2023-04-10T08:11:25;101786.66;;;13.08;58.24
71774;BME280;59607;52.130;5.430;2023-04-10T08:14:00;101781.16;;;13.01;57.86
71774;BME280;59607;52.130;5.430;2023-04-10T08:16:34;101775.84;;;12.93;58.31
71774;BME280;59607;52.130;5.430;2023-04-10T08:19:01;101779.53;;;13.00;58.22
71774;BME280;59607;52.130;5.430;2023-04-10T08:21:35;101782.16;;;13.00;57.88
71774;BME280;59607;52.130;5.430;2023-04-10T08:24:02;101779.47;;;13.18;57.98
71774;BME280;59607;52.130;5.430;2023-04-10T08:26:31;101781.84;;;13.30;57.17
71774;BME280;59607;52.130;5.430;2023-04-10T08:29:00;101777.69;;;13.54;58.20
71774;BME280;59607;52.130;5.430;2023-04-10T08:31:33;101764.69;;;13.69;57.55
71774;BME280;59607;52.130;5.430;2023-04-10T08:34:08;101767.34;;;13.77;55.87
71774;BME280;59607;52.130;5.430;2023-04-10T08:36:37;101762.75;;;13.79;56.21
71774;BME280;59607;52.130;5.430;2023-04-10T08:39:03;101753.06;;;13.88;57.37
71774;BME280;59607;52.130;5.430;2023-04-10T08:41:30;101748.94;;;14.02;56.48
71774;BME280;59607;52.130;5.430;2023-04-10T08:44:02;101743.16;;;13.90;56.02
71774;BME280;59607;52.130;5.430;2023-04-10T08:46:29;101746.44;;;13.84;56.38
71774;BME280;59607;52.130;5.430;2023-04-10T08:49:04;101749.63;;;14.04;55.89
71774;BME280;59607;52.130;5.430;2023-04-10T08:51:35;101737.41;;;14.03;57.05
71774;BME280;59607;52.130;5.430;2023-04-10T08:54:09;101742.19;;;13.91;55.93
71774;BME280;59607;52.130;5.430;2023-04-10T08:56:41;101736.56;;;13.86;56.90
71774;BME280;59607;52.130;5.430;2023-04-10T08:59:10;101732.28;;;14.02;56.88
71774;BME280;59607;52.130;5.430;2023-04-10T09:01:38;101740.72;;;14.05;57.13
71774;BME280;59607;52.130;5.430;2023-04-10T09:04:06;101736.59;;;14.03;56.94
71774;BME280;59607;52.130;5.430;2023-04-10T09:06:35;101730.81;;;13.99;57.28
71774;BME280;59607;52.130;5.430;2023-04-10T09:09:06;101735.56;;;13.87;56.73
71774;BME280;59607;52.130;5.430;2023-04-10T09:14:27;101716.78;;;13.90;57.23
71774;BME280;59607;52.130;5.430;2023-04-10T09:17:22;101718.31;;;14.01;57.28
71774;BME280;59607;52.130;5.430;2023-04-10T09:19:53;101708.22;;;13.88;57.53
71774;BME280;59607;52.130;5.430;2023-04-10T09:22:33;101698.31;;;13.82;57.56
71774;BME280;59607;52.130;5.430;2023-04-10T09:25:01;101700.63;;;13.77;57.93
71774;BME280;59607;52.130;5.430;2023-04-10T09:27:33;101699.97;;;13.83;57.29
71774;BME280;59607;52.130;5.430;2023-04-10T09:30:03;101696.16;;;13.77;57.47
71774;BME280;59607;52.130;5.430;2023-04-10T09:32:49;101686.44;;;13.78;57.64
71774;BME280;59607;52.130;5.430;2023-04-10T09:35:16;101682.00;;;13.78;57.20
71774;BME280;59607;52.130;5.430;2023-04-10T09:37:44;101676.91;;;13.77;57.67
71774;BME280;59607;52.130;5.430;2023-04-10T09:40:20;101675.41;;;13.91;57.04
71774;BME280;59607;52.130;5.430;2023-04-10T09:42:47;101660.75;;;13.97;56.86
71774;BME280;59607;52.130;5.430;2023-04-10T09:45:13;101658.25;;;13.95;57.18
71774;BME280;59607;52.130;5.430;2023-04-10T09:48:06;101652.19;;;13.94;56.94
71774;BME280;59607;52.130;5.430;2023-04-10T09:50:37;101640.97;;;14.01;57.08
71774;BME280;59607;52.130;5.430;2023-04-10T09:53:09;101650.53;;;14.10;56.93
71774;BME280;59607;52.130;5.430;2023-04-10T09:55:40;101638.47;;;14.24;57.54
71774;BME280;59607;52.130;5.430;2023-04-10T09:58:10;101645.41;;;14.34;56.34
71774;BME280;59607;52.130;5.430;2023-04-10T10:03:16;101632.59;;;14.71;55.92
71774;BME280;59607;52.130;5.430;2023-04-10T10:05:50;101629.66;;;14.57;55.45
71774;BME280;59607;52.130;5.430;2023-04-10T10:08:20;101624.38;;;14.57;55.22
71774;BME280;59607;52.130;5.430;2023-04-10T10:10:56;101625.03;;;14.59;55.68
71774;BME280;59607;52.130;5.430;2023-04-10T10:13:34;101619.69;;;14.76;55.74
71774;BME280;59607;52.130;5.430;2023-04-10T10:19:30;101614.34;;;14.92;55.22
71774;BME280;59607;52.130;5.430;2023-04-10T10:21:59;101603.34;;;14.89;55.66
71774;BME280;59607;52.130;5.430;2023-04-10T10:24:30;101600.81;;;14.96;55.09
71774;BME280;59607;52.130;5.430;2023-04-10T10:27:01;101599.97;;;15.03;54.57
71774;BME280;59607;52.130;5.430;2023-04-10T10:29:31;101590.22;;;14.96;55.01
71774;BME280;59607;52.130;5.430;2023-04-10T10:31:59;101592.53;;;14.99;56.12
71774;BME280;59607;52.130;5.430;2023-04-10T10:34:31;101578.34;;;15.00;54.58
71774;BME280;59607;52.130;5.430;2023-04-10T10:36:58;101568.84;;;15.14;54.63
71774;BME280;59607;52.130;5.430;2023-04-10T10:42:29;101569.13;;;15.42;54.69
71774;BME280;59607;52.130;5.430;2023-04-10T10:45:13;101558.91;;;15.63;54.84
71774;BME280;59607;52.130;5.430;2023-04-10T10:47:52;101560.22;;;15.82;54.17
71774;BME280;59607;52.130;5.430;2023-04-10T10:50:19;101557.38;;;15.84;53.77
71774;BME280;59607;52.130;5.430;2023-04-10T10:52:51;101543.69;;;15.80;54.89
71774;BME280;59607;52.130;5.430;2023-04-10T10:57:49;101540.75;;;16.13;53.48
71774;BME280;59607;52.130;5.430;2023-04-10T11:00:20;101525.78;;;16.06;52.85
71774;BME280;59607;52.130;5.430;2023-04-10T11:06:02;101519.03;;;16.18;52.31
71774;BME280;59607;52.130;5.430;2023-04-10T11:16:23;101482.81;;;16.56;52.14
71774;BME280;59607;52.130;5.430;2023-04-10T11:19:10;101487.63;;;16.67;52.00
71774;BME280;59607;52.130;5.430;2023-04-10T11:24:25;101473.00;;;16.71;52.02
71774;BME280;59607;52.130;5.430;2023-04-10T11:26:54;101467.13;;;16.76;51.94
71774;BME280;59607;52.130;5.430;2023-04-10T11:32:02;101463.19;;;17.09;51.24
71774;BME280;59607;52.130;5.430;2023-04-10T11:34:29;101468.47;;;17.09;52.22
71774;BME280;59607;52.130;5.430;2023-04-10T11:37:05;101462.16;;;17.32;52.68
71774;BME280;59607;52.130;5.430;2023-04-10T11:39:32;101449.34;;;17.35;51.41
71774;BME280;59607;52.130;5.430;2023-04-10T11:41:59;101454.97;;;17.25;51.19
71774;BME280;59607;52.130;5.430;2023-04-10T11:44:33;101445.16;;;17.26;52.43
71774;BME280;59607;52.130;5.430;2023-04-10T11:47:12;101436.63;;;17.31;52.37
71774;BME280;59607;52.130;5.430;2023-04-10T11:49:40;101422.47;;;17.45;52.25
71774;BME280;59607;52.130;5.430;2023-04-10T11:52:23;101421.34;;;17.61;52.19
71774;BME280;59607;52.130;5.430;2023-04-10T11:54:57;101413.50;;;17.46;50.77
71774;BME280;59607;52.130;5.430;2023-04-10T11:57:33;101424.63;;;17.35;51.39
71774;BME280;59607;52.130;5.430;2023-04-10T12:00:03;101416.25;;;17.31;51.50
71774;BME280;59607;52.130;5.430;2023-04-10T12:02:29;101397.72;;;17.38;52.20
71774;BME280;59607;52.130;5.430;2023-04-10T12:05:02;101415.06;;;17.41;51.94
71774;BME280;59607;52.130;5.430;2023-04-10T12:07:29;101404.56;;;17.54;51.80
71774;BME280;59607;52.130;5.430;2023-04-10T12:10:00;101396.13;;;17.79;52.32
71774;BME280;59607;52.130;5.430;2023-04-10T12:12:34;101396.31;;;17.78;50.95
71774;BME280;59607;52.130;5.430;2023-04-10T12:15:27;101389.72;;;17.67;51.55
71774;BME280;59607;52.130;5.430;2023-04-10T12:17:54;101383.06;;;17.84;51.21
71774;BME280;59607;52.130;5.430;2023-04-10T12:20:25;101384.72;;;17.85;51.64
71774;BME280;59607;52.130;5.430;2023-04-10T12:22:53;101379.19;;;17.80;52.40
71774;BME280;59607;52.130;5.430;2023-04-10T12:25:21;101378.50;;;17.71;51.50
71774;BME280;59607;52.130;5.430;2023-04-10T12:28:05;101372.97;;;17.59;51.41
71774;BME280;59607;52.130;5.430;2023-04-10T12:30:32;101360.06;;;17.49;52.19
71774;BME280;59607;52.130;5.430;2023-04-10T12:33:00;101348.78;;;17.41;52.76
71774;BME280;59607;52.130;5.430;2023-04-10T12:35:39;101351.63;;;17.32;52.21
71774;BME280;59607;52.130;5.430;2023-04-10T12:38:07;101352.81;;;17.30;51.81
71774;BME280;59607;52.130;5.430;2023-04-10T12:40:36;101343.00;;;17.23;51.53
71774;BME280;59607;52.130;5.430;2023-04-10T12:43:29;101331.41;;;17.31;52.13
71774;BME280;59607;52.130;5.430;2023-04-10T12:45:58;101332.03;;;17.33;52.28
71774;BME280;59607;52.130;5.430;2023-04-10T12:48:25;101317.72;;;17.27;52.75
71774;BME280;59607;52.130;5.430;2023-04-10T12:50:52;101316.84;;;17.13;52.76
71774;BME280;59607;52.130;5.430;2023-04-10T12:53:23;101308.41;;;17.03;53.24
71774;BME280;59607;52.130;5.430;2023-04-10T12:58:28;101304.78;;;16.82;52.95
71774;BME280;59607;52.130;5.430;2023-04-10T13:01:06;101296.75;;;16.69;53.53
71774;BME280;59607;52.130;5.430;2023-04-10T13:03:36;101302.56;;;16.57;53.76
71774;BME280;59607;52.130;5.430;2023-04-10T13:06:09;101294.13;;;16.47;54.64
71774;BME280;59607;52.130;5.430;2023-04-10T13:08:38;101284.03;;;16.35;53.83
71774;BME280;59607;52.130;5.430;2023-04-10T13:11:05;101269.38;;;16.33;53.87
71774;BME280;59607;52.130;5.430;2023-04-10T13:13:34;101263.81;;;16.27;53.91
71774;BME280;59607;52.130;5.430;2023-04-10T13:16:04;101258.72;;;16.26;54.31
71774;BME280;59607;52.130;5.430;2023-04-10T13:18:30;101256.44;;;16.23;54.37
71774;BME280;59607;52.130;5.430;2023-04-10T13:21:11;101262.97;;;16.20;54.49
71774;BME280;59607;52.130;5.430;2023-04-10T13:23:37;101262.31;;;16.18;55.15
71774;BME280;59607;52.130;5.430;2023-04-10T13:26:09;101257.22;;;16.16;55.06
71774;BME280;59607;52.130;5.430;2023-04-10T13:28:35;101247.66;;;16.15;54.82
71774;BME280;59607;52.130;5.430;2023-04-10T13:31:06;101249.47;;;16.15;55.24
71774;BME280;59607;52.130;5.430;2023-04-10T13:33:45;101254.63;;;16.23;55.00
71774;BME280;59607;52.130;5.430;2023-04-10T13:36:13;101249.56;;;16.28;54.96
71774;BME280;59607;52.130;5.430;2023-04-10T13:38:40;101233.53;;;16.30;55.47
71774;BME280;59607;52.130;5.430;2023-04-10T13:41:15;101230.19;;;16.21;56.35
71774;BME280;59607;52.130;5.430;2023-04-10T13:43:42;101219.84;;;16.04;56.64
71774;BME280;59607;52.130;5.430;2023-04-10T13:46:11;101218.69;;;15.92;58.80
71774;BME280;59607;52.130;5.430;2023-04-10T13:48:41;101213.47;;;15.77;59.42
71774;BME280;59607;52.130;5.430;2023-04-10T13:51:07;101211.31;;;15.65;60.29
71774;BME280;59607;52.130;5.430;2023-04-10T13:53:37;101200.84;;;15.57;63.24